sensor_id;sensor_type;location;lat;lon;timestamp;pressure;altitude;pressure_sealevel;temperature
60003;BMP280;46322;52.018;8.702;2023-05-10T00:03:28;99414.69;;;24.02
60003;BMP280;46322;52.018;8.702;2023-05-10T00:08:48;99406.34;;;22.97
60003;BMP280;46322;52.018;8.702;2023-05-10T00:14:09;99408.72;;;22.79
60003;BMP280;46322;52.018;8.702;2023-05-10T00:19:29;99401.91;;;23.03
60003;BMP280;46322;52.018;8.702;2023-05-10T00:24:50;99407.31;;;23.03
60003;BMP280;46322;52.018;8.702;2023-05-10T00:30:10;99397.88;;;23.69
60003;BMP280;46322;52.018;8.702;2023-05-10T00:35:31;99392.59;;;23.91
60003;BMP280;46322;52.018;8.702;2023-05-10T00:40:51;99383.91;;;23.29
60003;BMP280;46322;52.018;8.702;2023-05-10T00:46:12;99378.00;;;22.40
60003;BMP280;46322;52.018;8.702;2023-05-10T00:51:33;99375.47;;;22.49
60003;BMP280;46322;52.018;8.702;2023-05-10T00:56:54;99373.59;;;22.14
60003;BMP280;46322;52.018;8.702;2023-05-10T01:02:14;99376.97;;;21.42
60003;BMP280;46322;52.018;8.702;2023-05-10T01:07:35;99370.47;;;22.32
60003;BMP280;46322;52.018;8.702;2023-05-10T01:12:55;99366.16;;;20.76
60003;BMP280;46322;52.018;8.702;2023-05-10T01:18:16;99367.19;;;21.88
60003;BMP280;46322;52.018;8.702;2023-05-10T01:29:18;99369.28;;;23.68
60003;BMP280;46322;52.018;8.702;2023-05-10T01:40:12;99356.31;;;23.21
60003;BMP280;46322;52.018;8.702;2023-05-10T01:51:29;99363.44;;;23.57
60003;BMP280;46322;52.018;8.702;2023-05-10T01:56:59;99351.97;;;23.65
60003;BMP280;46322;52.018;8.702;2023-05-10T02:02:20;99347.50;;;23.46
60003;BMP280;46322;52.018;8.702;2023-05-10T02:07:41;99360.13;;;23.08
60003;BMP280;46322;52.018;8.702;2023-05-10T02:13:02;99361.72;;;21.52
60003;BMP280;46322;52.018;8.702;2023-05-10T02:18:23;99380.81;;;22.01
60003;BMP280;46322;52.018;8.702;2023-05-10T02:23:44;99397.25;;;22.58
60003;BMP280;46322;52.018;8.702;2023-05-10T02:29:05;99390.91;;;20.67
60003;BMP280;46322;52.018;8.702;2023-05-10T02:34:26;99391.66;;;21.18
60003;BMP280;46322;52.018;8.702;2023-05-10T02:39:47;99376.25;;;20.95
60003;BMP280;46322;52.018;8.702;2023-05-10T02:45:13;99370.56;;;21.33
60003;BMP280;46322;52.018;8.702;2023-05-10T02:50:35;99376.59;;;20.97
60003;BMP280;46322;52.018;8.702;2023-05-10T02:55:57;99381.94;;;20.77
60003;BMP280;46322;52.018;8.702;2023-05-10T03:01:18;99382.72;;;21.21
60003;BMP280;46322;52.018;8.702;2023-05-10T03:06:39;99373.84;;;20.51
60003;BMP280;46322;52.018;8.702;2023-05-10T03:22:42;99381.69;;;21.15
60003;BMP280;46322;52.018;8.702;2023-05-10T03:28:03;99378.34;;;20.84
60003;BMP280;46322;52.018;8.702;2023-05-10T03:33:24;99380.38;;;20.26
60003;BMP280;46322;52.018;8.702;2023-05-10T03:38:45;99380.38;;;20.26
60003;BMP280;46322;52.018;8.702;2023-05-10T03:44:05;99381.84;;;20.00
60003;BMP280;46322;52.018;8.702;2023-05-10T03:49:26;99389.78;;;21.15
60003;BMP280;46322;52.018;8.702;2023-05-10T03:54:46;99386.69;;;20.66
60003;BMP280;46322;52.018;8.702;2023-05-10T04:00:07;99395.22;;;20.65
60003;BMP280;46322;52.018;8.702;2023-05-10T04:05:27;71455.81;;;-144.30
60003;BMP280;46322;52.018;8.702;2023-05-10T04:10:48;99397.63;;;21.06
60003;BMP280;46322;52.018;8.702;2023-05-10T04:16:08;99392.97;;;20.60
60003;BMP280;46322;52.018;8.702;2023-05-10T04:21:29;99402.38;;;20.45
60003;BMP280;46322;52.018;8.702;2023-05-10T04:26:49;71455.81;;;-144.30
60003;BMP280;46322;52.018;8.702;2023-05-10T04:32:10;71455.81;;;-144.30
60003;BMP280;46322;52.018;8.702;2023-05-10T04:37:30;71455.81;;;-144.30
60003;BMP280;46322;52.018;8.702;2023-05-10T04:42:51;71455.81;;;-144.30
60003;BMP280;46322;52.018;8.702;2023-05-10T04:48:11;71455.81;;;-144.30
60003;BMP280;46322;52.018;8.702;2023-05-10T04:53:32;71455.81;;;-144.30
60003;BMP280;46322;52.018;8.702;2023-05-10T04:58:52;71455.81;;;-144.30
60003;BMP280;46322;52.018;8.702;2023-05-10T05:04:13;71455.81;;;-144.30
60003;BMP280;46322;52.018;8.702;2023-05-10T05:09:33;71455.81;;;-144.30
60003;BMP280;46322;52.018;8.702;2023-05-10T05:14:54;71455.81;;;-144.30
60003;BMP280;46322;52.018;8.702;2023-05-10T05:20:14;71455.81;;;-144.30
60003;BMP280;46322;52.018;8.702;2023-05-10T05:25:35;71455.81;;;-144.30
60003;BMP280;46322;52.018;8.702;2023-05-10T05:30:55;71455.81;;;-144.30
60003;BMP280;46322;52.018;8.702;2023-05-10T05:36:16;71455.81;;;-144.30
60003;BMP280;46322;52.018;8.702;2023-05-10T05:41:37;71455.81;;;-144.30
60003;BMP280;46322;52.018;8.702;2023-05-10T05:46:57;71455.81;;;-144.30
60003;BMP280;46322;52.018;8.702;2023-05-10T05:52:17;71455.81;;;-144.30
60003;BMP280;46322;52.018;8.702;2023-05-10T05:57:38;71455.81;;;-144.30
60003;BMP280;46322;52.018;8.702;2023-05-10T06:02:58;71455.81;;;-144.30
60003;BMP280;46322;52.018;8.702;2023-05-10T06:08:19;71455.81;;;-144.30
60003;BMP280;46322;52.018;8.702;2023-05-10T06:13:39;71455.81;;;-144.30
60003;BMP280;46322;52.018;8.702;2023-05-10T06:19:00;71455.81;;;-144.30
60003;BMP280;46322;52.018;8.702;2023-05-10T06:24:20;71455.81;;;-144.30
60003;BMP280;46322;52.018;8.702;2023-05-10T06:29:41;71455.81;;;-144.30
60003;BMP280;46322;52.018;8.702;2023-05-10T06:35:01;71455.81;;;-144.30
60003;BMP280;46322;52.018;8.702;2023-05-10T06:40:22;71455.81;;;-144.30
60003;BMP280;46322;52.018;8.702;2023-05-10T06:45:42;71455.81;;;-144.30
60003;BMP280;46322;52.018;8.702;2023-05-10T06:51:03;71455.81;;;-144.30
60003;BMP280;46322;52.018;8.702;2023-05-10T06:56:23;71455.81;;;-144.30
60003;BMP280;46322;52.018;8.702;2023-05-10T07:01:44;71455.81;;;-144.30
60003;BMP280;46322;52.018;8.702;2023-05-10T07:07:04;71455.81;;;-144.30
60003;BMP280;46322;52.018;8.702;2023-05-10T07:12:25;71455.81;;;20.21
60003;BMP280;46322;52.018;8.702;2023-05-10T07:17:45;99616.06;;;20.20
60003;BMP280;46322;52.018;8.702;2023-05-10T07:23:06;92596.00;;;20.19
60003;BMP280;46322;52.018;8.702;2023-05-10T07:28:26;99626.28;;;20.70
60003;BMP280;46322;52.018;8.702;2023-05-10T07:33:47;99629.22;;;20.52
60003;BMP280;46322;52.018;8.702;2023-05-10T07:39:07;99633.81;;;20.52
60003;BMP280;46322;52.018;8.702;2023-05-10T07:44:27;99621.56;;;21.65
60003;BMP280;46322;52.018;8.702;2023-05-10T07:49:48;99636.34;;;21.00
60003;BMP280;46322;52.018;8.702;2023-05-10T07:55:08;99642.56;;;20.93
60003;BMP280;46322;52.018;8.702;2023-05-10T08:00:29;99647.16;;;20.62
60003;BMP280;46322;52.018;8.702;2023-05-10T08:05:49;99640.25;;;20.95
60003;BMP280;46322;52.018;8.702;2023-05-10T08:11:10;99649.22;;;21.16
60003;BMP280;46322;52.018;8.702;2023-05-10T08:16:30;99648.06;;;20.86
60003;BMP280;46322;52.018;8.702;2023-05-10T08:21:51;99660.50;;;21.37
60003;BMP280;46322;52.018;8.702;2023-05-10T08:27:12;99660.13;;;21.62
60003;BMP280;46322;52.018;8.702;2023-05-10T08:32:32;99653.56;;;22.53
60003;BMP280;46322;52.018;8.702;2023-05-10T08:37:53;99663.38;;;22.24
60003;BMP280;46322;52.018;8.702;2023-05-10T08:43:14;99669.44;;;21.58
60003;BMP280;46322;52.018;8.702;2023-05-10T08:48:34;99672.53;;;22.30
60003;BMP280;46322;52.018;8.702;2023-05-10T08:53:55;99677.59;;;23.23
60003;BMP280;46322;52.018;8.702;2023-05-10T08:59:16;99679.00;;;22.32
60003;BMP280;46322;52.018;8.702;2023-05-10T09:04:37;99682.03;;;23.49
60003;BMP280;46322;52.018;8.702;2023-05-10T09:09:57;99687.19;;;22.29
60003;BMP280;46322;52.018;8.702;2023-05-10T09:15:18;99690.56;;;22.76
60003;BMP280;46322;52.018;8.702;2023-05-10T09:20:38;99686.94;;;23.02
60003;BMP280;46322;52.018;8.702;2023-05-10T09:26:03;99700.84;;;21.71
60003;BMP280;46322;52.018;8.702;2023-05-10T09:31:23;99703.97;;;21.70
60003;BMP280;46322;52.018;8.702;2023-05-10T09:42:13;99720.31;;;21.56
60003;BMP280;46322;52.018;8.702;2023-05-10T09:47:38;99725.00;;;22.29
60003;BMP280;46322;52.018;8.702;2023-05-10T09:52:59;99732.06;;;22.23
60003;BMP280;46322;52.018;8.702;2023-05-10T09:58:20;99726.34;;;23.19
60003;BMP280;46322;52.018;8.702;2023-05-10T10:03:43;99718.31;;;23.68
60003;BMP280;46322;52.018;8.702;2023-05-10T10:09:05;99723.63;;;23.39
60003;BMP280;46322;52.018;8.702;2023-05-10T10:14:25;99725.69;;;23.31
60003;BMP280;46322;52.018;8.702;2023-05-10T10:19:46;99718.97;;;24.50
60003;BMP280;46322;52.018;8.702;2023-05-10T10:25:07;99712.22;;;24.41
60003;BMP280;46322;52.018;8.702;2023-05-10T10:35:52;99712.00;;;24.49
60003;BMP280;46322;52.018;8.702;2023-05-10T10:52:25;99709.53;;;24.96
60003;BMP280;46322;52.018;8.702;2023-05-10T10:57:50;99712.66;;;24.94
60003;BMP280;46322;52.018;8.702;2023-05-10T11:03:11;99721.56;;;26.61
60003;BMP280;46322;52.018;8.702;2023-05-10T11:08:32;99709.72;;;26.55
60003;BMP280;46322;52.018;8.702;2023-05-10T11:13:53;99714.09;;;25.24
60003;BMP280;46322;52.018;8.702;2023-05-10T11:19:22;99724.25;;;24.95
60003;BMP280;46322;52.018;8.702;2023-05-10T11:24:56;99713.91;;;27.94
60003;BMP280;46322;52.018;8.702;2023-05-10T11:30:17;99724.50;;;27.92
60003;BMP280;46322;52.018;8.702;2023-05-10T11:35:38;99720.31;;;29.50
60003;BMP280;46322;52.018;8.702;2023-05-10T11:40:59;99710.41;;;29.38
60003;BMP280;46322;52.018;8.702;2023-05-10T11:46:21;99717.84;;;27.17
60003;BMP280;46322;52.018;8.702;2023-05-10T11:51:41;99731.44;;;27.17
60003;BMP280;46322;52.018;8.702;2023-05-10T11:57:02;99720.44;;;28.06
60003;BMP280;46322;52.018;8.702;2023-05-10T12:02:23;99726.69;;;26.68
60003;BMP280;46322;52.018;8.702;2023-05-10T12:07:43;99737.44;;;28.61
60003;BMP280;46322;52.018;8.702;2023-05-10T12:13:04;99747.50;;;29.69
60003;BMP280;46322;52.018;8.702;2023-05-10T12:18:24;99721.47;;;31.97
60003;BMP280;46322;52.018;8.702;2023-05-10T12:23:45;99737.06;;;29.43
60003;BMP280;46322;52.018;8.702;2023-05-10T12:29:12;99754.69;;;25.28
60003;BMP280;46322;52.018;8.702;2023-05-10T12:34:34;99766.69;;;23.82
60003;BMP280;46322;52.018;8.702;2023-05-10T12:39:55;99784.69;;;21.80
60003;BMP280;46322;52.018;8.702;2023-05-10T12:45:15;99789.47;;;21.69
60003;BMP280;46322;52.018;8.702;2023-05-10T12:50:37;99789.97;;;20.96
60003;BMP280;46322;52.018;8.702;2023-05-10T12:55:58;99794.34;;;21.51
60003;BMP280;46322;52.018;8.702;2023-05-10T13:01:18;99791.72;;;22.51
60003;BMP280;46322;52.018;8.702;2023-05-10T13:06:38;99786.97;;;23.38
60003;BMP280;46322;52.018;8.702;2023-05-10T13:11:59;99780.31;;;24.11
60003;BMP280;46322;52.018;8.702;2023-05-10T13:17:19;99796.53;;;23.79
60003;BMP280;46322;52.018;8.702;2023-05-10T13:22:40;99793.75;;;26.28
60003;BMP280;46322;52.018;8.702;2023-05-10T13:28:01;99794.19;;;27.23
60003;BMP280;46322;52.018;8.702;2023-05-10T13:33:22;99802.53;;;25.22
60003;BMP280;46322;52.018;8.702;2023-05-10T13:38:42;99799.63;;;27.23
60003;BMP280;46322;52.018;8.702;2023-05-10T13:44:03;99804.75;;;29.87
60003;BMP280;46322;52.018;8.702;2023-05-10T13:49:23;99802.78;;;28.98
60003;BMP280;46322;52.018;8.702;2023-05-10T13:54:44;99798.50;;;32.57
60003;BMP280;46322;52.018;8.702;2023-05-10T14:00:04;99805.31;;;28.59
60003;BMP280;46322;52.018;8.702;2023-05-10T14:05:25;99824.06;;;25.00
60003;BMP280;46322;52.018;8.702;2023-05-10T14:10:45;99828.84;;;23.50
60003;BMP280;46322;52.018;8.702;2023-05-10T14:16:06;99821.31;;;23.02
60003;BMP280;46322;52.018;8.702;2023-05-10T14:21:26;99824.25;;;22.44
60003;BMP280;46322;52.018;8.702;2023-05-10T14:26:47;99821.72;;;22.57
60003;BMP280;46322;52.018;8.702;2023-05-10T14:32:07;99823.19;;;23.05
60003;BMP280;46322;52.018;8.702;2023-05-10T14:37:28;99829.63;;;22.44
60003;BMP280;46322;52.018;8.702;2023-05-10T14:42:49;99822.25;;;21.98
60003;BMP280;46322;52.018;8.702;2023-05-10T14:48:10;99822.84;;;22.36
60003;BMP280;46322;52.018;8.702;2023-05-10T14:53:31;99811.03;;;22.27
60003;BMP280;46322;52.018;8.702;2023-05-10T14:58:51;99821.59;;;22.17
60003;BMP280;46322;52.018;8.702;2023-05-10T15:04:11;99823.88;;;21.31
60003;BMP280;46322;52.018;8.702;2023-05-10T15:09:32;99824.31;;;22.41
60003;BMP280;46322;52.018;8.702;2023-05-10T15:14:52;99828.81;;;22.47
60003;BMP280;46322;52.018;8.702;2023-05-10T15:20:13;99828.81;;;22.94
60003;BMP280;46322;52.018;8.702;2023-05-10T15:25:34;99836.38;;;24.43
60003;BMP280;46322;52.018;8.702;2023-05-10T15:30:54;99845.78;;;21.64
60003;BMP280;46322;52.018;8.702;2023-05-10T15:36:15;99837.81;;;23.27
60003;BMP280;46322;52.018;8.702;2023-05-10T15:41:36;99840.56;;;23.04
60003;BMP280;46322;52.018;8.702;2023-05-10T15:46:56;99852.38;;;22.93
60003;BMP280;46322;52.018;8.702;2023-05-10T15:52:17;99850.66;;;23.23
60003;BMP280;46322;52.018;8.702;2023-05-10T15:57:40;99859.09;;;22.08
60003;BMP280;46322;52.018;8.702;2023-05-10T16:03:00;99866.25;;;21.92
60003;BMP280;46322;52.018;8.702;2023-05-10T16:08:21;99875.16;;;22.69
60003;BMP280;46322;52.018;8.702;2023-05-10T16:13:41;99871.84;;;23.84
60003;BMP280;46322;52.018;8.702;2023-05-10T16:19:02;99883.59;;;23.18
60003;BMP280;46322;52.018;8.702;2023-05-10T16:24:22;99888.41;;;23.26
60003;BMP280;46322;52.018;8.702;2023-05-10T16:29:42;99915.69;;;22.42
60003;BMP280;46322;52.018;8.702;2023-05-10T16:35:03;99919.25;;;22.09
60003;BMP280;46322;52.018;8.702;2023-05-10T16:40:24;99913.56;;;21.69
60003;BMP280;46322;52.018;8.702;2023-05-10T16:45:44;99924.34;;;21.32
60003;BMP280;46322;52.018;8.702;2023-05-10T16:51:05;99927.50;;;21.27
60003;BMP280;46322;52.018;8.702;2023-05-10T16:56:25;99937.19;;;19.92
60003;BMP280;46322;52.018;8.702;2023-05-10T17:01:45;99929.38;;;20.16
60003;BMP280;46322;52.018;8.702;2023-05-10T17:07:06;99936.16;;;21.04
60003;BMP280;46322;52.018;8.702;2023-05-10T17:12:26;99930.63;;;20.77
60003;BMP280;46322;52.018;8.702;2023-05-10T17:17:47;99925.47;;;20.93
60003;BMP280;46322;52.018;8.702;2023-05-10T17:23:07;99927.63;;;19.59
60003;BMP280;46322;52.018;8.702;2023-05-10T17:28:28;99929.19;;;18.89
60003;BMP280;46322;52.018;8.702;2023-05-10T17:33:48;99938.75;;;18.73
60003;BMP280;46322;52.018;8.702;2023-05-10T17:39:09;99935.31;;;18.86
60003;BMP280;46322;52.018;8.702;2023-05-10T17:44:29;99931.91;;;19.11
60003;BMP280;46322;52.018;8.702;2023-05-10T17:49:50;99937.38;;;20.33
60003;BMP280;46322;52.018;8.702;2023-05-10T17:55:10;99943.03;;;19.23
60003;BMP280;46322;52.018;8.702;2023-05-10T18:00:31;99942.66;;;19.25
60003;BMP280;46322;52.018;8.702;2023-05-10T18:05:51;99956.06;;;19.67
60003;BMP280;46322;52.018;8.702;2023-05-10T18:11:12;99950.31;;;19.16
60003;BMP280;46322;52.018;8.702;2023-05-10T18:16:32;99954.16;;;19.32
60003;BMP280;46322;52.018;8.702;2023-05-10T18:21:53;99972.97;;;20.66
60003;BMP280;46322;52.018;8.702;2023-05-10T18:27:13;99971.81;;;21.63
60003;BMP280;46322;52.018;8.702;2023-05-10T18:32:34;99978.84;;;20.47
60003;BMP280;46322;52.018;8.702;2023-05-10T18:37:54;99985.59;;;19.89
60003;BMP280;46322;52.018;8.702;2023-05-10T18:43:15;99983.66;;;20.84
60003;BMP280;46322;52.018;8.702;2023-05-10T18:48:35;99990.63;;;19.41
60003;BMP280;46322;52.018;8.702;2023-05-10T18:53:56;100001.75;;;20.80
60003;BMP280;46322;52.018;8.702;2023-05-10T18:59:16;100001.09;;;20.58
60003;BMP280;46322;52.018;8.702;2023-05-10T19:04:37;100004.59;;;20.55
60003;BMP280;46322;52.018;8.702;2023-05-10T19:09:57;100009.75;;;21.45
60003;BMP280;46322;52.018;8.702;2023-05-10T19:15:18;100022.63;;;21.68
60003;BMP280;46322;52.018;8.702;2023-05-10T19:20:38;100029.34;;;21.53
60003;BMP280;46322;52.018;8.702;2023-05-10T19:25:59;100028.63;;;21.87
60003;BMP280;46322;52.018;8.702;2023-05-10T19:31:20;100028.91;;;21.58
60003;BMP280;46322;52.018;8.702;2023-05-10T19:36:40;100031.72;;;21.47
60003;BMP280;46322;52.018;8.702;2023-05-10T19:42:01;100028.66;;;21.42
60003;BMP280;46322;52.018;8.702;2023-05-10T19:47:21;100021.97;;;21.09
60003;BMP280;46322;52.018;8.702;2023-05-10T19:52:42;100034.34;;;20.99
60003;BMP280;46322;52.018;8.702;2023-05-10T19:58:02;100030.03;;;20.39
60003;BMP280;46322;52.018;8.702;2023-05-10T20:03:23;100034.50;;;20.74
60003;BMP280;46322;52.018;8.702;2023-05-10T20:08:44;100033.91;;;20.35
60003;BMP280;46322;52.018;8.702;2023-05-10T20:14:04;100028.50;;;21.97
60003;BMP280;46322;52.018;8.702;2023-05-10T20:19:25;100023.88;;;21.12
60003;BMP280;46322;52.018;8.702;2023-05-10T20:24:45;100031.28;;;21.53
60003;BMP280;46322;52.018;8.702;2023-05-10T20:30:06;100029.28;;;20.42
60003;BMP280;46322;52.018;8.702;2023-05-10T20:35:26;100030.06;;;20.36
60003;BMP280;46322;52.018;8.702;2023-05-10T20:40:47;100026.31;;;19.80
60003;BMP280;46322;52.018;8.702;2023-05-10T20:46:07;100034.31;;;20.30
60003;BMP280;46322;52.018;8.702;2023-05-10T20:51:28;100021.47;;;20.66
60003;BMP280;46322;52.018;8.702;2023-05-10T20:56:51;100021.78;;;19.66
60003;BMP280;46322;52.018;8.702;2023-05-10T21:02:11;100032.84;;;19.22
60003;BMP280;46322;52.018;8.702;2023-05-10T21:07:32;100030.94;;;19.33
60003;BMP280;46322;52.018;8.702;2023-05-10T21:12:53;100029.03;;;19.87
60003;BMP280;46322;52.018;8.702;2023-05-10T21:18:14;100029.41;;;19.25
60003;BMP280;46322;52.018;8.702;2023-05-10T21:23:34;100038.22;;;19.29
60003;BMP280;46322;52.018;8.702;2023-05-10T21:28:55;100033.63;;;19.87
60003;BMP280;46322;52.018;8.702;2023-05-10T21:34:15;100030.59;;;19.78
60003;BMP280;46322;52.018;8.702;2023-05-10T21:39:35;100035.56;;;19.33
60003;BMP280;46322;52.018;8.702;2023-05-10T21:44:56;100036.34;;;19.44
60003;BMP280;46322;52.018;8.702;2023-05-10T21:50:16;100034.75;;;19.04
60003;BMP280;46322;52.018;8.702;2023-05-10T21:55:37;100038.28;;;19.44
60003;BMP280;46322;52.018;8.702;2023-05-10T22:00:57;100038.63;;;19.21
60003;BMP280;46322;52.018;8.702;2023-05-10T22:06:18;100048.09;;;18.86
60003;BMP280;46322;52.018;8.702;2023-05-10T22:11:38;100036.38;;;20.85
60003;BMP280;46322;52.018;8.702;2023-05-10T22:16:59;100041.34;;;19.60
60003;BMP280;46322;52.018;8.702;2023-05-10T22:22:19;100044.81;;;19.78
60003;BMP280;46322;52.018;8.702;2023-05-10T22:27:40;100040.94;;;19.47
60003;BMP280;46322;52.018;8.702;2023-05-10T22:33:00;100045.47;;;20.18
60003;BMP280;46322;52.018;8.702;2023-05-10T22:38:21;100051.72;;;20.95
60003;BMP280;46322;52.018;8.702;2023-05-10T22:43:41;100055.47;;;21.11
60003;BMP280;46322;52.018;8.702;2023-05-10T22:49:02;100050.63;;;20.78
60003;BMP280;46322;52.018;8.702;2023-05-10T22:54:22;100054.88;;;20.75
60003;BMP280;46322;52.018;8.702;2023-05-10T22:59:43;100067.41;;;21.10
60003;BMP280;46322;52.018;8.702;2023-05-10T23:05:03;100068.84;;;21.22
60003;BMP280;46322;52.018;8.702;2023-05-10T23:10:24;100060.16;;;20.97
60003;BMP280;46322;52.018;8.702;2023-05-10T23:15:44;100068.44;;;20.54
60003;BMP280;46322;52.018;8.702;2023-05-10T23:21:05;100062.94;;;20.86
60003;BMP280;46322;52.018;8.702;2023-05-10T23:26:25;100066.47;;;20.69
60003;BMP280;46322;52.018;8.702;2023-05-10T23:31:49;100065.63;;;20.86
60003;BMP280;46322;52.018;8.702;2023-05-10T23:37:09;100065.56;;;20.97
60003;BMP280;46322;52.018;8.702;2023-05-10T23:42:31;100064.91;;;20.82
60003;BMP280;46322;52.018;8.702;2023-05-10T23:47:51;100070.56;;;20.98
60003;BMP280;46322;52.018;8.702;2023-05-10T23:53:12;100069.03;;;20.97
60003;BMP280;46322;52.018;8.702;2023-05-10T23:58:32;100071.28;;;21.06
